Time;durP1;ratioP1;P1;durP2;ratioP2;P2;SDS_P1;SDS_P2;PMS_P1;PMS_P2;Temp;Humidity;BMP_temperature;BMP_pressure;BME280_temperature;BME280_humidity;BME280_pressure;Samples;Min_cycle;Max_cycle;Signal;HPM_P1;HPM_P2
2021/10/08 00:00:52;;;;;;;4.15;3.95;;;14.40;70.90;;;;;;5033047;28;20928;-89
2021/10/08 00:03:19;;;;;;;3.80;3.60;;;14.40;70.90;;;;;;5032347;28;20030;-88
2021/10/08 00:05:45;;;;;;;3.97;3.78;;;14.40;70.90;;;;;;5032784;28;20033;-88
2021/10/08 00:08:11;;;;;;;3.83;3.63;;;14.40;70.90;;;;;;5029276;28;20371;-88
2021/10/08 00:10:37;;;;;;;6.40;4.30;;;14.30;70.90;;;;;;5027842;28;20030;-88
2021/10/08 00:13:03;;;;;;;4.07;3.88;;;14.40;71.00;;;;;;5034617;28;20037;-88
2021/10/08 00:15:29;;;;;;;3.78;3.58;;;14.30;71.00;;;;;;5033917;28;20038;-88
2021/10/08 00:17:55;;;;;;;4.65;4.35;;;14.30;71.00;;;;;;5034296;28;20070;-88
2021/10/08 00:20:21;;;;;;;4.00;3.80;;;14.30;71.00;;;;;;5030080;28;20040;-87
2021/10/08 00:22:48;;;;;;;4.85;4.30;;;14.30;71.10;;;;;;5015998;28;20045;-87
2021/10/08 00:25:14;;;;;;;3.95;3.75;;;14.20;71.00;;;;;;5033518;28;20042;-90
2021/10/08 00:27:40;;;;;;;4.15;3.95;;;14.20;71.00;;;;;;5034395;28;20310;-88
2021/10/08 00:30:06;;;;;;;4.10;3.90;;;14.20;71.10;;;;;;5025773;28;20026;-88
2021/10/08 00:32:32;;;;;;;4.32;4.13;;;14.20;71.10;;;;;;5025254;28;20045;-88
2021/10/08 00:34:59;;;;;;;3.80;3.60;;;14.20;71.10;;;;;;5024505;28;20477;-89
2021/10/08 00:37:25;;;;;;;4.22;4.03;;;14.10;71.10;;;;;;5033952;28;20037;-87
2021/10/08 00:39:51;;;;;;;4.13;3.92;;;14.10;71.20;;;;;;5020160;28;20034;-88
2021/10/08 00:42:19;;;;;;;3.83;3.63;;;14.10;71.20;;;;;;5032774;28;20036;-88
2021/10/08 00:44:46;;;;;;;4.20;4.00;;;14.10;71.20;;;;;;5015895;28;20033;-88
2021/10/08 00:47:15;;;;;;;4.20;3.90;;;14.10;71.20;;;;;;5026007;28;20033;-88
2021/10/08 00:49:41;;;;;;;3.90;3.70;;;14.10;71.30;;;;;;5029136;28;20041;-87
2021/10/08 00:52:07;;;;;;;3.80;3.60;;;14.10;71.30;;;;;;5021518;28;20491;-88
2021/10/08 00:54:33;;;;;;;4.30;4.10;;;14.00;71.30;;;;;;5029593;28;20037;-88
2021/10/08 00:56:59;;;;;;;4.18;3.88;;;14.00;71.30;;;;;;5032967;28;20396;-88
2021/10/08 00:59:26;;;;;;;4.18;3.97;;;14.00;71.30;;;;;;5033104;28;20152;-89
2021/10/08 01:01:52;;;;;;;4.18;3.97;;;14.00;71.40;;;;;;5031599;28;20411;-88
2021/10/08 01:04:19;;;;;;;3.95;3.75;;;14.00;71.40;;;;;;5033142;28;20472;-88
2021/10/08 01:06:45;;;;;;;4.28;4.07;;;14.00;71.40;;;;;;5013960;28;20053;-87
2021/10/08 01:09:11;;;;;;;3.80;3.60;;;13.90;71.40;;;;;;5026920;28;20032;-87
2021/10/08 01:11:37;;;;;;;3.95;3.75;;;13.90;71.40;;;;;;5030655;28;20388;-89
2021/10/08 01:14:04;;;;;;;3.80;3.60;;;13.90;71.50;;;;;;5030753;28;20036;-89
2021/10/08 01:16:30;;;;;;;3.95;3.75;;;13.90;71.60;;;;;;5023453;28;20056;-88
2021/10/08 01:18:56;;;;;;;4.35;4.15;;;13.80;71.50;;;;;;5027571;28;20037;-89
2021/10/08 01:21:22;;;;;;;3.80;3.60;;;13.80;71.60;;;;;;5022451;28;20495;-88
2021/10/08 01:23:48;;;;;;;3.85;3.65;;;13.80;71.60;;;;;;5025096;28;20049;-88
2021/10/08 01:26:15;;;;;;;4.10;3.80;;;13.80;71.60;;;;;;5027303;28;20041;-89
2021/10/08 01:28:41;;;;;;;3.75;3.55;;;13.80;71.60;;;;;;5029655;28;20030;-88
2021/10/08 01:31:07;;;;;;;3.90;3.70;;;13.80;71.60;;;;;;5027639;28;20034;-89
2021/10/08 01:33:33;;;;;;;4.38;3.97;;;13.80;71.70;;;;;;5032397;28;20048;-88
2021/10/08 01:35:59;;;;;;;3.72;3.53;;;13.80;71.70;;;;;;5033090;28;20037;-89
2021/10/08 01:38:25;;;;;;;4.07;3.88;;;13.80;71.70;;;;;;5025207;28;20045;-88
2021/10/08 01:40:51;;;;;;;3.75;3.55;;;13.80;71.80;;;;;;5024313;28;20037;-87
2021/10/08 01:43:17;;;;;;;4.03;3.83;;;13.80;71.80;;;;;;5026740;28;20040;-88
2021/10/08 01:45:43;;;;;;;4.03;3.83;;;13.80;71.80;;;;;;5027062;28;20038;-88
2021/10/08 01:48:10;;;;;;;3.90;3.70;;;13.70;71.70;;;;;;5032958;28;20396;-88
2021/10/08 01:50:36;;;;;;;3.70;3.50;;;13.70;71.80;;;;;;5029390;28;20045;-88
2021/10/08 01:53:02;;;;;;;4.18;3.88;;;13.70;71.80;;;;;;5012956;28;20407;-88
2021/10/08 01:55:28;;;;;;;5.95;4.45;;;13.70;71.90;;;;;;5032020;28;20052;-88
2021/10/08 01:57:54;;;;;;;4.10;3.90;;;13.70;71.90;;;;;;5032262;28;20408;-87
2021/10/08 02:00:20;;;;;;;5.22;4.57;;;13.60;71.90;;;;;;5031253;28;20117;-88
2021/10/08 02:02:46;;;;;;;4.07;3.88;;;13.60;72.00;;;;;;5027568;28;20029;-88
2021/10/08 02:05:12;;;;;;;3.95;3.75;;;13.60;72.00;;;;;;5023705;28;20044;-89
2021/10/08 02:07:38;;;;;;;4.13;3.92;;;13.60;72.00;;;;;;5022428;28;20404;-88
2021/10/08 02:10:05;;;;;;;3.90;3.70;;;13.50;72.00;;;;;;5028914;28;20033;-87
2021/10/08 02:12:31;;;;;;;3.85;3.65;;;13.50;72.00;;;;;;5028264;28;20041;-89
2021/10/08 02:14:57;;;;;;;3.80;3.60;;;13.50;72.10;;;;;;5029947;28;20038;-87
2021/10/08 02:17:23;;;;;;;4.15;3.95;;;13.50;72.10;;;;;;5029423;28;20514;-89
2021/10/08 02:19:49;;;;;;;4.20;4.00;;;13.50;72.10;;;;;;5027984;28;20044;-88
2021/10/08 02:22:15;;;;;;;4.45;4.05;;;13.50;72.10;;;;;;5014749;28;20443;-87
2021/10/08 02:24:41;;;;;;;4.15;3.85;;;13.40;72.10;;;;;;5027224;28;20034;-88
2021/10/08 02:27:07;;;;;;;4.03;3.83;;;13.40;72.20;;;;;;5030789;28;20041;-89
2021/10/08 02:29:33;;;;;;;3.80;3.60;;;13.40;72.20;;;;;;5030171;28;20487;-88
2021/10/08 02:32:00;;;;;;;3.90;3.70;;;13.40;72.30;;;;;;5028673;28;20030;-88
2021/10/08 02:34:26;;;;;;;4.40;4.13;;;13.30;72.20;;;;;;5029940;28;20048;-88
2021/10/08 02:36:52;;;;;;;3.70;3.50;;;13.40;72.30;;;;;;5030611;28;20034;-88
2021/10/08 02:39:18;;;;;;;3.90;3.70;;;13.40;72.30;;;;;;5032121;28;20044;-88
2021/10/08 02:41:44;;;;;;;3.78;3.58;;;13.30;72.30;;;;;;5031808;28;20033;-87
2021/10/08 02:44:10;;;;;;;3.80;3.60;;;13.30;72.30;;;;;;5031211;28;20384;-88
2021/10/08 02:46:36;;;;;;;4.75;4.47;;;13.30;72.30;;;;;;5021695;28;20029;-88
2021/10/08 02:49:03;;;;;;;4.30;4.10;;;13.30;72.40;;;;;;5030577;28;20022;-86
2021/10/08 02:51:33;;;;;;;3.72;3.53;;;13.20;72.40;;;;;;5031254;28;20033;-88
2021/10/08 02:54:00;;;;;;;3.85;3.65;;;13.20;72.40;;;;;;5031615;28;20068;-88
2021/10/08 02:56:27;;;;;;;4.03;3.83;;;13.20;72.50;;;;;;5026849;28;20049;-88
2021/10/08 02:58:53;;;;;;;3.78;3.58;;;13.10;72.80;;;;;;5030970;28;20499;-88
2021/10/08 03:01:21;;;;;;;3.70;3.50;;;13.10;72.60;;;;;;5027494;28;20041;-88
2021/10/08 03:03:47;;;;;;;3.63;3.42;;;13.10;72.70;;;;;;5030218;28;20385;-88
2021/10/08 03:06:13;;;;;;;3.78;3.58;;;13.10;72.60;;;;;;5031161;28;20033;-88
2021/10/08 03:08:39;;;;;;;3.92;3.72;;;13.10;72.70;;;;;;5030067;28;20033;-88
2021/10/08 03:11:05;;;;;;;3.80;3.60;;;13.00;72.60;;;;;;5029310;28;20053;-88
2021/10/08 03:13:31;;;;;;;12.38;3.80;;;13.00;72.70;;;;;;5031190;28;20025;-88
2021/10/08 03:15:58;;;;;;;3.90;3.70;;;13.00;72.80;;;;;;5030914;28;20037;-87
2021/10/08 03:18:24;;;;;;;3.80;3.60;;;12.90;72.80;;;;;;5029814;28;20433;-87
2021/10/08 03:20:50;;;;;;;3.75;3.55;;;12.90;72.80;;;;;;5045078;28;20393;-88
2021/10/08 03:23:16;;;;;;;3.85;3.65;;;12.90;72.80;;;;;;5031206;28;20396;-89
2021/10/08 03:25:42;;;;;;;3.47;3.38;;;12.90;72.90;;;;;;5030273;28;20396;-88
2021/10/08 03:28:09;;;;;;;3.72;3.53;;;12.90;73.00;;;;;;5030655;28;20045;-88
2021/10/08 03:30:36;;;;;;;4.00;3.70;;;12.80;72.90;;;;;;5015998;28;20022;-88
2021/10/08 03:33:02;;;;;;;4.45;4.15;;;12.80;72.90;;;;;;5047303;28;20045;-87
2021/10/08 03:35:28;;;;;;;3.80;3.60;;;12.90;73.00;;;;;;5035130;28;20041;-88
2021/10/08 03:38:37;;;;;;;4.22;4.03;;;12.80;72.90;;;;;;5033070;28;20034;-88
2021/10/08 03:40:49;;;;;;;3.90;3.70;;;12.90;73.00;;;;;;5029863;28;20041;-88
2021/10/08 03:43:15;;;;;;;3.97;3.78;;;12.80;72.90;;;;;;5002479;28;20037;-88
2021/10/08 03:45:53;;;;;;;3.60;3.40;;;12.80;73.00;;;;;;5034576;28;20040;-85
2021/10/08 03:50:57;;;;;;;4.13;3.83;;;12.80;73.00;;;;;;5032946;28;20036;-88
2021/10/08 03:53:23;;;;;;;3.80;3.60;;;12.80;73.00;;;;;;5000065;28;20046;-88
2021/10/08 03:55:50;;;;;;;4.03;3.83;;;12.70;73.00;;;;;;5034155;28;20487;-89
2021/10/08 03:58:16;;;;;;;3.97;3.78;;;12.80;73.20;;;;;;5034533;28;20479;-88
2021/10/08 04:00:42;;;;;;;4.25;4.05;;;12.70;73.20;;;;;;5031923;28;20053;-88
2021/10/08 04:03:08;;;;;;;3.70;3.50;;;12.70;73.20;;;;;;5035088;28;20392;-88
2021/10/08 04:05:34;;;;;;;3.80;3.60;;;12.70;73.20;;;;;;5034742;28;20036;-88
2021/10/08 04:08:00;;;;;;;3.40;3.30;;;12.70;73.20;;;;;;5033070;28;20500;-89
2021/10/08 04:10:26;;;;;;;3.58;3.38;;;12.60;73.30;;;;;;5032816;28;20029;-88
2021/10/08 04:12:52;;;;;;;4.18;3.88;;;12.60;73.30;;;;;;5020478;28;20530;-88
2021/10/08 04:15:18;;;;;;;3.75;3.55;;;12.60;73.30;;;;;;5033490;28;20033;-88
2021/10/08 04:17:44;;;;;;;3.80;3.60;;;12.60;73.30;;;;;;5031505;28;20050;-88
2021/10/08 04:20:11;;;;;;;4.13;3.92;;;12.50;73.40;;;;;;5031650;28;20483;-89
2021/10/08 04:22:37;;;;;;;3.75;3.55;;;12.50;73.40;;;;;;5036170;28;20060;-90
2021/10/08 04:25:03;;;;;;;10.00;3.80;;;12.50;73.40;;;;;;5033174;28;20034;-90
2021/10/08 04:27:29;;;;;;;3.88;3.67;;;12.50;73.40;;;;;;5035140;28;20033;-90
2021/10/08 04:29:55;;;;;;;3.30;3.20;;;12.50;73.40;;;;;;5030827;28;20037;-91
2021/10/08 04:32:21;;;;;;;3.40;3.30;;;12.40;73.30;;;;;;5033899;28;20034;-91
2021/10/08 04:34:48;;;;;;;3.38;3.28;;;12.40;73.30;;;;;;5033322;28;20038;-90
2021/10/08 04:37:14;;;;;;;3.80;3.60;;;12.40;73.40;;;;;;5038805;28;20510;-90
2021/10/08 04:39:40;;;;;;;3.58;3.40;;;12.40;73.40;;;;;;5034156;28;20041;-90
2021/10/08 04:42:06;;;;;;;4.15;3.95;;;12.30;73.40;;;;;;5034149;28;20395;-91
2021/10/08 04:44:33;;;;;;;3.85;3.65;;;12.40;73.50;;;;;;5016393;28;20029;-90
2021/10/08 04:46:59;;;;;;;3.63;3.42;;;12.30;73.50;;;;;;5033877;28;20041;-89
2021/10/08 04:49:26;;;;;;;3.60;3.42;;;12.30;73.60;;;;;;5031359;28;20040;-85
2021/10/08 04:51:52;;;;;;;3.75;3.55;;;12.20;73.60;;;;;;5025577;28;20391;-90
2021/10/08 04:54:18;;;;;;;4.90;4.10;;;12.30;73.70;;;;;;5044480;28;20032;-90
2021/10/08 04:56:44;;;;;;;3.63;3.45;;;12.20;73.60;;;;;;5032988;28;20038;-90
2021/10/08 04:59:10;;;;;;;10.27;3.97;;;12.30;73.60;;;;;;5026227;28;20032;-88
2021/10/08 05:01:36;;;;;;;3.95;3.75;;;12.30;73.60;;;;;;5022413;28;20054;-89
2021/10/08 05:04:02;;;;;;;3.83;3.63;;;12.20;74.40;;;;;;5034346;28;20037;-89
2021/10/08 05:06:28;;;;;;;4.50;4.20;;;12.30;73.70;;;;;;5034172;28;20036;-89
2021/10/08 05:08:54;;;;;;;3.65;3.45;;;12.20;73.70;;;;;;5032741;28;20034;-88
2021/10/08 05:11:21;;;;;;;3.97;3.78;;;12.20;73.70;;;;;;5032324;28;20056;-87
2021/10/08 05:13:47;;;;;;;6.03;4.40;;;12.20;73.70;;;;;;5033100;28;20500;-86
2021/10/08 05:16:13;;;;;;;3.72;3.53;;;12.20;73.70;;;;;;5030962;28;20056;-87
2021/10/08 05:18:39;;;;;;;4.13;3.92;;;12.20;73.70;;;;;;5012986;28;20041;-87
2021/10/08 05:21:05;;;;;;;7.75;4.07;;;12.20;73.70;;;;;;5015443;28;20045;-87
2021/10/08 05:23:33;;;;;;;4.07;3.88;;;12.20;73.70;;;;;;5032113;28;20436;-87
2021/10/08 05:25:59;;;;;;;4.05;3.85;;;12.20;73.70;;;;;;5033522;28;20049;-87
2021/10/08 05:28:26;;;;;;;3.70;3.50;;;12.20;73.70;;;;;;5025524;28;20530;-87
2021/10/08 05:30:53;;;;;;;4.38;4.18;;;12.20;73.80;;;;;;5032476;28;20044;-87
2021/10/08 05:33:19;;;;;;;4.32;4.03;;;12.20;73.80;;;;;;5032504;28;20036;-87
2021/10/08 05:35:45;;;;;;;4.40;4.10;;;12.10;73.70;;;;;;5033008;28;20064;-87
2021/10/08 05:38:11;;;;;;;4.20;4.00;;;12.10;73.70;;;;;;5015675;28;20026;-87
2021/10/08 05:40:37;;;;;;;4.20;4.00;;;12.10;73.80;;;;;;5032991;28;20419;-87
2021/10/08 05:43:03;;;;;;;3.90;3.70;;;12.10;73.80;;;;;;5033077;28;20017;-87
2021/10/08 05:45:29;;;;;;;3.97;3.78;;;12.10;73.80;;;;;;5032000;28;20029;-87
2021/10/08 05:47:56;;;;;;;3.80;3.60;;;12.00;73.80;;;;;;5011052;28;20037;-87
2021/10/08 05:50:22;;;;;;;4.60;4.13;;;12.00;73.80;;;;;;5028470;28;20029;-89
2021/10/08 05:52:48;;;;;;;4.10;3.90;;;12.10;73.90;;;;;;5030704;28;20026;-85
2021/10/08 05:55:14;;;;;;;4.28;3.97;;;12.00;73.80;;;;;;5027945;28;20033;-86
2021/10/08 05:57:40;;;;;;;4.00;3.80;;;12.10;73.90;;;;;;5028424;28;20029;-87
2021/10/08 06:00:06;;;;;;;4.15;3.95;;;12.00;73.80;;;;;;5024132;28;20042;-91
2021/10/08 06:02:32;;;;;;;12.77;4.15;;;12.00;73.90;;;;;;5055398;28;20045;-87
2021/10/08 06:04:59;;;;;;;4.10;3.90;;;12.00;73.90;;;;;;5015317;28;20472;-87
2021/10/08 06:07:25;;;;;;;3.90;3.70;;;12.00;73.90;;;;;;5032739;28;20034;-91
2021/10/08 06:09:51;;;;;;;4.10;3.90;;;12.00;73.90;;;;;;5031070;28;20377;-86
2021/10/08 06:12:17;;;;;;;4.18;3.97;;;12.00;73.80;;;;;;5031197;28;20032;-87
2021/10/08 06:14:43;;;;;;;3.83;3.63;;;12.00;73.90;;;;;;5032583;28;20503;-88
2021/10/08 06:17:09;;;;;;;3.80;3.60;;;12.00;73.90;;;;;;5031757;28;20033;-87
2021/10/08 06:19:35;;;;;;;4.45;4.15;;;12.00;74.00;;;;;;5031765;28;20468;-88
2021/10/08 06:22:01;;;;;;;3.85;3.65;;;12.00;73.90;;;;;;5032029;28;20037;-85
2021/10/08 06:24:28;;;;;;;4.05;3.85;;;12.00;73.90;;;;;;5031447;28;20026;-87
2021/10/08 06:26:54;;;;;;;4.35;4.10;;;12.00;73.90;;;;;;5031823;28;20054;-87
2021/10/08 06:29:20;;;;;;;4.53;4.22;;;12.00;73.80;;;;;;5031859;28;20408;-87
2021/10/08 06:31:46;;;;;;;4.32;4.03;;;12.00;73.80;;;;;;5029944;28;20041;-87
2021/10/08 06:34:12;;;;;;;4.35;4.15;;;12.00;73.80;;;;;;5030581;28;20029;-89
2021/10/08 06:36:38;;;;;;;4.55;4.35;;;12.00;73.80;;;;;;5030300;28;20048;-86
2021/10/08 06:39:04;;;;;;;4.00;3.80;;;12.00;73.80;;;;;;5030965;28;20029;-84
2021/10/08 06:41:30;;;;;;;3.95;3.75;;;12.00;73.90;;;;;;5030664;28;20029;-87
2021/10/08 06:43:56;;;;;;;4.35;3.97;;;12.00;73.90;;;;;;5031552;28;20041;-86
2021/10/08 06:46:23;;;;;;;3.80;3.60;;;12.00;73.80;;;;;;5063185;28;20032;-85
2021/10/08 06:48:49;;;;;;;3.85;3.55;;;12.00;73.80;;;;;;5053298;28;20485;-86
2021/10/08 06:51:15;;;;;;;3.70;3.50;;;12.00;73.80;;;;;;5032175;28;20029;-85
2021/10/08 06:53:41;;;;;;;4.45;4.18;;;12.00;73.80;;;;;;5063303;28;20021;-87
2021/10/08 06:56:08;;;;;;;3.97;3.67;;;12.00;73.70;;;;;;5031517;28;20037;-86
2021/10/08 06:58:34;;;;;;;3.60;3.40;;;12.00;73.70;;;;;;5031314;28;20037;-86
2021/10/08 07:01:00;;;;;;;4.00;3.80;;;12.10;73.70;;;;;;5030929;28;20041;-86
2021/10/08 07:03:26;;;;;;;3.63;3.33;;;12.10;73.60;;;;;;5032295;28;20028;-87
2021/10/08 07:05:52;;;;;;;3.67;3.47;;;12.10;73.60;;;;;;5046411;28;20060;-87
2021/10/08 07:08:18;;;;;;;3.40;3.30;;;12.10;73.60;;;;;;5046719;28;20030;-89
2021/10/08 07:10:44;;;;;;;3.60;3.40;;;12.10;73.60;;;;;;5031461;28;20357;-86
2021/10/08 07:13:10;;;;;;;4.13;3.92;;;12.20;73.60;;;;;;5031239;28;20042;-85
2021/10/08 07:15:37;;;;;;;3.80;3.60;;;12.20;73.50;;;;;;5031295;28;20493;-88
2021/10/08 07:18:03;;;;;;;4.43;4.22;;;12.30;73.60;;;;;;5014517;28;20412;-89
2021/10/08 07:20:29;;;;;;;5.00;4.60;;;12.50;73.40;;;;;;5062379;28;20029;-86
2021/10/08 07:22:56;;;;;;;4.93;4.55;;;12.90;72.80;;;;;;5030325;28;20045;-88
2021/10/08 07:25:23;;;;;;;4.75;4.55;;;13.30;71.80;;;;;;5031809;28;20036;-87
2021/10/08 07:27:49;;;;;;;4.90;4.70;;;13.60;70.90;;;;;;5031059;28;20030;-89
2021/10/08 07:30:16;;;;;;;5.07;4.78;;;13.90;70.20;;;;;;5030326;28;20041;-89
2021/10/08 07:32:42;;;;;;;4.72;4.47;;;14.20;69.90;;;;;;5030981;28;20431;-89
2021/10/08 07:35:09;;;;;;;4.80;4.50;;;14.40;69.20;;;;;;5033690;28;20427;-87
2021/10/08 07:37:35;;;;;;;4.57;4.38;;;14.70;68.80;;;;;;5031475;28;20484;-89
2021/10/08 07:40:01;;;;;;;4.38;4.18;;;14.90;68.50;;;;;;5046211;28;20512;-87
2021/10/08 07:42:28;;;;;;;5.05;4.75;;;15.10;68.40;;;;;;5031206;28;20041;-90
2021/10/08 07:44:54;;;;;;;4.72;4.53;;;15.30;68.00;;;;;;5030492;28;20036;-87
2021/10/08 07:47:20;;;;;;;6.80;6.50;;;15.50;67.70;;;;;;5031145;28;20399;-88
2021/10/08 07:49:46;;;;;;;6.13;5.82;;;15.60;67.50;;;;;;5031697;28;20038;-86
2021/10/08 07:52:13;;;;;;;5.10;4.90;;;15.70;67.70;;;;;;5007928;28;20034;-88
2021/10/08 07:54:39;;;;;;;5.55;5.28;;;15.80;67.70;;;;;;5035604;28;20053;-90
2021/10/08 07:57:06;;;;;;;5.70;5.35;;;15.90;67.40;;;;;;5013936;28;20060;-89
2021/10/08 07:59:32;;;;;;;6.28;5.88;;;16.00;68.20;;;;;;5020416;28;20041;-88
2021/10/08 08:01:58;;;;;;;5.82;5.53;;;16.10;67.50;;;;;;5032448;28;20052;-87
2021/10/08 08:04:24;;;;;;;5.43;5.22;;;16.20;67.40;;;;;;5063930;28;20029;-89
2021/10/08 08:06:50;;;;;;;6.20;5.80;;;16.20;67.40;;;;;;5027357;28;20029;-90
2021/10/08 08:09:16;;;;;;;5.72;5.40;;;16.20;67.50;;;;;;5039023;28;20057;-86
2021/10/08 08:11:43;;;;;;;5.63;5.35;;;16.30;67.50;;;;;;5026570;28;20045;-83
2021/10/08 08:14:09;;;;;;;6.40;6.00;;;16.40;67.50;;;;;;5035221;28;20033;-88
2021/10/08 08:16:35;;;;;;;6.13;5.82;;;16.60;67.30;;;;;;5045617;28;20264;-89
2021/10/08 08:19:01;;;;;;;6.10;5.80;;;16.70;67.20;;;;;;5048047;28;20038;-86
2021/10/08 08:21:27;;;;;;;7.20;6.70;;;16.70;67.10;;;;;;5017665;28;20076;-87
2021/10/08 08:23:53;;;;;;;5.72;5.43;;;16.60;67.40;;;;;;5050633;28;20041;-89
2021/10/08 08:26:19;;;;;;;5.82;5.53;;;16.60;67.60;;;;;;5016500;28;20033;-90
2021/10/08 08:28:45;;;;;;;5.88;5.57;;;16.60;67.70;;;;;;5023101;28;20049;-89
2021/10/08 08:31:12;;;;;;;7.25;6.65;;;16.60;67.80;;;;;;5049465;28;20029;-90
2021/10/08 08:33:38;;;;;;;6.55;6.25;;;16.60;68.00;;;;;;5032318;28;20037;-88
2021/10/08 08:36:04;;;;;;;6.43;6.05;;;16.50;68.30;;;;;;5032888;28;20049;-90
2021/10/08 08:38:30;;;;;;;5.38;5.07;;;16.50;68.50;;;;;;5034331;28;20037;-86
2021/10/08 08:41:00;;;;;;;5.00;4.80;;;16.60;68.50;;;;;;5041367;28;20032;-88
2021/10/08 08:43:28;;;;;;;5.07;4.88;;;16.70;68.30;;;;;;5048870;28;20049;-88
2021/10/08 08:45:55;;;;;;;5.85;5.55;;;16.80;68.00;;;;;;5033503;28;20037;-88
2021/10/08 08:48:21;;;;;;;6.75;6.30;;;16.80;68.00;;;;;;5016864;28;20032;-88
2021/10/08 08:50:47;;;;;;;5.78;5.47;;;16.80;68.00;;;;;;5015403;28;20488;-84
2021/10/08 08:53:14;;;;;;;5.55;5.25;;;16.80;68.10;;;;;;5032536;28;20033;-86
2021/10/08 08:55:40;;;;;;;5.38;5.07;;;16.70;68.20;;;;;;5047343;28;20034;-88
2021/10/08 08:58:06;;;;;;;5.90;5.60;;;16.70;68.40;;;;;;5014558;28;20056;-86
2021/10/08 09:00:32;;;;;;;6.30;5.90;;;16.70;68.40;;;;;;4999352;28;20065;-87
2021/10/08 09:03:03;;;;;;;6.47;6.18;;;16.70;68.40;;;;;;4999651;28;20038;-87
2021/10/08 09:05:31;;;;;;;5.82;5.15;;;16.80;68.50;;;;;;5065555;28;20367;-87
2021/10/08 09:07:58;;;;;;;4.80;4.60;;;16.80;68.40;;;;;;5032590;28;20037;-85
2021/10/08 09:10:27;;;;;;;5.30;5.10;;;16.90;68.40;;;;;;5048391;28;21645;-77
2021/10/08 09:12:55;;;;;;;6.40;5.70;;;17.00;68.40;;;;;;5064299;28;20472;-77
2021/10/08 09:15:21;;;;;;;5.55;5.32;;;17.10;68.20;;;;;;5032685;28;20104;-85
2021/10/08 09:17:47;;;;;;;5.93;5.63;;;17.20;68.00;;;;;;5031307;28;20508;-87
2021/10/08 09:20:15;;;;;;;5.93;5.32;;;17.20;68.00;;;;;;5063037;28;20033;-85
2021/10/08 09:22:41;;;;;;;5.93;5.63;;;17.30;68.10;;;;;;5032064;28;20039;-83
2021/10/08 09:25:29;;;;;;;5.47;5.18;;;17.40;67.80;;;;;;5020419;28;20064;-84
2021/10/08 09:27:56;;;;;;;4.95;4.75;;;17.50;67.90;;;;;;5047862;28;20045;-84
2021/10/08 09:30:26;;;;;;;5.93;5.63;;;17.50;67.80;;;;;;5029117;28;20036;-85
2021/10/08 09:32:56;;;;;;;6.57;6.20;;;17.70;67.70;;;;;;5045079;28;20033;-85
2021/10/08 09:35:26;;;;;;;10.77;5.80;;;17.90;67.60;;;;;;5045945;28;20018;-85
2021/10/08 09:37:56;;;;;;;6.80;6.40;;;17.90;67.40;;;;;;5011872;28;20053;-83
2021/10/08 09:40:44;;;;;;;6.72;6.22;;;18.00;67.30;;;;;;5033146;28;20041;-86
2021/10/08 09:43:12;;;;;;;6.10;5.80;;;18.00;67.30;;;;;;5047025;28;20033;-84
2021/10/08 09:45:52;;;;;;;6.55;6.25;;;18.10;67.30;;;;;;5012617;28;20037;-85
2021/10/08 09:48:20;;;;;;;6.40;6.10;;;18.00;67.30;;;;;;5028615;28;20041;-83
2021/10/08 09:51:06;;;;;;;6.50;6.20;;;18.10;67.30;;;;;;5011506;28;20029;-81
2021/10/08 09:53:48;;;;;;;7.13;6.40;;;18.10;67.20;;;;;;5043957;28;20032;-83
2021/10/08 09:56:34;;;;;;;6.78;6.38;;;18.20;67.10;;;;;;5039794;28;20037;-83
2021/10/08 09:59:02;;;;;;;6.13;5.72;;;18.20;66.90;;;;;;5040014;28;20034;-86
2021/10/08 10:01:29;;;;;;;6.47;6.07;;;18.10;66.60;;;;;;5046222;28;20037;-86
2021/10/08 10:03:55;;;;;;;17.02;8.55;;;18.10;66.60;;;;;;5061845;28;20396;-77
2021/10/08 10:06:22;;;;;;;6.88;6.57;;;18.00;66.60;;;;;;5033069;28;20407;-78
2021/10/08 10:08:48;;;;;;;6.30;6.00;;;17.90;66.50;;;;;;5031007;28;20025;-78
2021/10/08 10:11:19;;;;;;;6.47;6.18;;;17.90;66.50;;;;;;5030859;28;20032;-79
2021/10/08 10:13:46;;;;;;;6.18;5.88;;;17.90;66.50;;;;;;5060515;28;20052;-79
2021/10/08 10:16:17;;;;;;;6.35;6.05;;;18.00;66.40;;;;;;5063265;28;20484;-79
2021/10/08 10:18:48;;;;;;;7.22;6.90;;;18.10;66.10;;;;;;5046645;28;20037;-79
2021/10/08 10:21:28;;;;;;;7.47;6.93;;;18.20;65.80;;;;;;5017511;28;20388;-78
2021/10/08 10:23:56;;;;;;;7.07;6.78;;;18.40;65.60;;;;;;5029861;28;20049;-77
2021/10/08 10:26:22;;;;;;;7.22;6.93;;;18.40;65.30;;;;;;5044322;28;20032;-78
2021/10/08 10:28:49;;;;;;;7.18;6.78;;;18.50;64.90;;;;;;5063350;28;20033;-78
2021/10/08 10:31:18;;;;;;;7.07;6.78;;;18.60;64.80;;;;;;5045233;28;20040;-78
2021/10/08 10:33:44;;;;;;;9.68;9.23;;;18.60;64.60;;;;;;5047037;28;20045;-77
2021/10/08 10:36:23;;;;;;;6.70;6.40;;;18.60;64.40;;;;;;5026610;28;20034;-77
2021/10/08 10:38:49;;;;;;;6.28;5.97;;;18.60;64.30;;;;;;5030331;28;20053;-84
2021/10/08 10:41:16;;;;;;;6.65;6.35;;;18.70;64.30;;;;;;5024757;28;20030;-78
2021/10/08 10:43:47;;;;;;;28.77;27.30;;;18.70;64.10;;;;;;5032733;28;20048;-77
2021/10/08 10:46:37;;;;;;;7.60;7.20;;;18.80;64.00;;;;;;5031309;28;20029;-77
2021/10/08 10:51:59;;;;;;;12.35;11.75;;;18.90;63.60;;;;;;5033172;28;20396;-78
2021/10/08 10:54:34;;;;;;;9.07;8.57;;;18.90;63.00;;;;;;5031030;28;20040;-77
2021/10/08 10:57:04;;;;;;;6.15;5.85;;;18.90;62.70;;;;;;5035488;28;20037;-77
2021/10/08 10:59:31;;;;;;;8.13;7.40;;;18.90;62.60;;;;;;5025069;28;20495;-78
2021/10/08 11:02:14;;;;;;;6.85;6.55;;;18.90;62.80;;;;;;5006801;28;20052;-77
2021/10/08 11:04:46;;;;;;;8.35;7.95;;;19.00;62.60;;;;;;5004196;28;20048;-79
2021/10/08 11:07:19;;;;;;;6.88;6.57;;;19.00;62.20;;;;;;5041394;28;20045;-79
2021/10/08 11:10:03;;;;;;;7.15;6.85;;;19.10;62.10;;;;;;5025109;28;20065;-78
2021/10/08 11:12:39;;;;;;;8.05;7.65;;;19.20;62.10;;;;;;5011183;28;20037;-79
2021/10/08 11:15:18;;;;;;;7.00;6.70;;;19.30;61.90;;;;;;5025862;28;20026;-76
2021/10/08 11:17:48;;;;;;;7.15;6.85;;;19.30;61.50;;;;;;5010278;28;20057;-76
2021/10/08 11:20:33;;;;;;;9.77;9.32;;;19.40;61.20;;;;;;5016286;28;20500;-77
2021/10/08 11:23:08;;;;;;;8.23;7.82;;;19.40;61.00;;;;;;5011221;28;20033;-76
2021/10/08 11:25:46;;;;;;;7.55;7.15;;;19.40;60.80;;;;;;5024792;28;20034;-77
2021/10/08 11:28:16;;;;;;;8.10;7.70;;;19.50;60.60;;;;;;4995584;28;20045;-79
2021/10/08 11:30:42;;;;;;;7.70;7.32;;;19.60;60.60;;;;;;5024057;28;20030;-77
2021/10/08 11:33:08;;;;;;;8.63;8.23;;;19.60;60.10;;;;;;5010134;28;20403;-77
2021/10/08 11:35:35;;;;;;;37.42;35.28;;;19.60;59.70;;;;;;5011198;28;20014;-77
2021/10/08 11:38:02;;;;;;;8.25;7.85;;;19.60;60.30;;;;;;5009323;28;20053;-77
2021/10/08 11:40:42;;;;;;;8.20;7.80;;;19.60;59.70;;;;;;5025957;28;20029;-75
2021/10/08 11:43:29;;;;;;;8.43;8.02;;;19.60;59.60;;;;;;4994963;28;20037;-75
2021/10/08 11:46:14;;;;;;;8.00;7.60;;;19.60;59.40;;;;;;5009011;28;20041;-76
2021/10/08 11:51:35;;;;;;;16.65;15.82;;;19.70;59.30;;;;;;4969693;28;20039;-75
2021/10/08 11:54:01;;;;;;;9.80;9.20;;;19.80;58.90;;;;;;4949807;28;20035;-75
2021/10/08 11:56:27;;;;;;;10.07;9.50;;;19.80;58.60;;;;;;4965401;28;20062;-76
2021/10/08 11:58:59;;;;;;;8.95;8.55;;;19.70;58.70;;;;;;4960423;28;20047;-76
2021/10/08 12:01:26;;;;;;;9.13;8.73;;;19.80;58.80;;;;;;4969699;28;20422;-75
2021/10/08 12:03:52;;;;;;;9.32;8.93;;;19.80;58.50;;;;;;4971738;28;20042;-76
2021/10/08 12:06:22;;;;;;;8.38;7.97;;;19.90;58.40;;;;;;4956772;28;20455;-76
2021/10/08 12:08:48;;;;;;;9.27;8.85;;;20.00;58.20;;;;;;4962014;28;20054;-75
2021/10/08 12:11:16;;;;;;;9.40;9.00;;;20.00;58.00;;;;;;4972367;28;20031;-75
2021/10/08 12:13:56;;;;;;;8.88;8.38;;;20.00;57.90;;;;;;4963845;28;20042;-76
2021/10/08 12:16:44;;;;;;;9.38;8.98;;;20.10;58.00;;;;;;4960127;28;20031;-76
2021/10/08 12:19:11;;;;;;;8.95;8.55;;;20.10;57.80;;;;;;4962052;28;20047;-76
2021/10/08 12:21:44;;;;;;;10.00;9.55;;;20.10;57.80;;;;;;4956814;28;20039;-75
2021/10/08 12:24:12;;;;;;;9.55;9.15;;;20.20;57.90;;;;;;4959826;28;20030;-75
2021/10/08 12:26:40;;;;;;;9.75;9.32;;;20.30;57.80;;;;;;4956442;28;20541;-76
2021/10/08 12:29:14;;;;;;;8.63;8.23;;;20.30;57.50;;;;;;5010196;28;20041;-76
2021/10/08 12:31:59;;;;;;;12.13;11.43;;;20.30;57.50;;;;;;4997274;28;20041;-75
2021/10/08 12:34:39;;;;;;;9.63;9.23;;;20.30;57.50;;;;;;5013165;28;20033;-75
2021/10/08 12:37:16;;;;;;;9.05;8.65;;;20.30;57.50;;;;;;5002442;28;20045;-76
2021/10/08 12:40:12;;;;;;;9.82;9.43;;;20.20;57.40;;;;;;5012379;28;20025;-76
2021/10/08 12:43:07;;;;;;;9.63;9.23;;;20.20;57.50;;;;;;5013737;28;20038;-76
2021/10/08 12:45:45;;;;;;;9.90;9.45;;;20.30;57.40;;;;;;5009770;28;20041;-76
2021/10/08 12:48:16;;;;;;;9.85;9.40;;;20.40;57.40;;;;;;5000004;28;20393;-76
2021/10/08 12:50:42;;;;;;;10.95;10.45;;;20.40;57.20;;;;;;5010251;28;20054;-76
2021/10/08 12:53:17;;;;;;;10.10;9.60;;;20.50;57.10;;;;;;4980276;28;20026;-76
2021/10/08 12:55:46;;;;;;;13.38;12.77;;;20.50;56.80;;;;;;5011990;28;20030;-76
2021/10/08 12:58:19;;;;;;;15.07;14.38;;;20.50;56.80;;;;;;5012344;28;20038;-77